Portada
METAR-TAF:

METAR-TAF

Aeropuertos :

Yüksekova, Turquía

latitud: 37-33-06N, longitud: 44-14-01E, altitud: 1950 m

Observación

El informe se hizo hace 4 horas y 1 minutos, a las 12:50 UTC
Viento 6 kt del suroeste, variando entre sur-sureste y oeste
Temperatura 24°C
Humedad 24%
Presión 1025 hPa
Visibilidad 10 km o más
Escasas nubes a una altura de 4000 ft

METAR: LTCW 271250Z 23006KT 150V280 9999 FEW040 24/02 Q1025

Hora: 19:51 (16:51 UTC)

Pronóstico

El informe se hizo hace 3 horas y 11 minutos, a las 13:40 UTC
Pronóstico válido del 27 a las 15 UTC al 27 a las 24 UTC
Viento 2 kt con dirección variable
Visibilidad 10 km o más
Escasas nubes a una altura de 4000 ft
Nubes dispersas a una altura de 15000 ft

TAF: LTCW 271340Z 2715/2724 VRB02KT 9999 FEW040 SCT150

Observaciones y pronósticos meteorológicos de más de 4000 aeropuertos (mensajes METAR y TAF).

Los puntos amarillos y rojos representan las estaciones disponibles.

Ponga el ratón en el punto deseado para ver el nombre de la estación.

Haga clic para ver las observaciones y los pronósticos meteorológicos.

Para cambiar el mapa : haga clic en los botones verdes con una cruz de color negro para hacer un zoom, en el botón verde con un guión para alejar o en las flechas verdes para mapas adyacentes.


METAR-TAF: